createdAt,value
2023-05-22T00:00:27.056Z,11.16
2023-05-22T00:02:57.553Z,11.14
2023-05-22T00:05:27.662Z,11.12
2023-05-22T00:07:57.674Z,11.11
2023-05-22T00:10:27.805Z,11.10
2023-05-22T00:12:57.969Z,11.10
2023-05-22T00:15:27.855Z,11.09
2023-05-22T00:17:58.930Z,11.07
2023-05-22T00:20:28.891Z,11.04
2023-05-22T00:23:01.283Z,11.01
2023-05-22T00:25:31.525Z,10.98
2023-05-22T00:28:01.957Z,10.96
2023-05-22T00:30:32.114Z,10.94
2023-05-22T00:33:02.650Z,10.94
2023-05-22T00:35:32.967Z,10.94
2023-05-22T00:38:05.640Z,10.93
2023-05-22T00:40:36.661Z,10.91
2023-05-22T00:43:08.662Z,10.85
2023-05-22T00:45:38.795Z,10.82
2023-05-22T00:48:09.734Z,10.82
2023-05-22T00:50:39.990Z,10.81
2023-05-22T00:53:10.126Z,10.82
2023-05-22T00:55:40.299Z,10.81
2023-05-22T00:58:10.576Z,10.80
2023-05-22T01:00:42.176Z,10.81
2023-05-22T01:03:12.668Z,10.83
2023-05-22T01:05:43.043Z,10.84
2023-05-22T01:08:13.522Z,10.85
2023-05-22T01:10:43.441Z,10.87
2023-05-22T01:13:23.912Z,10.87
2023-05-22T01:16:00.293Z,10.89
2023-05-22T01:18:32.230Z,10.90
2023-05-22T01:21:06.436Z,10.93
2023-05-22T01:24:01.286Z,10.95
2023-05-22T01:26:42.794Z,10.95
2023-05-22T01:29:41.090Z,10.95
2023-05-22T01:32:11.215Z,10.91
2023-05-22T01:34:41.798Z,10.87
2023-05-22T01:37:12.232Z,10.86
2023-05-22T01:39:42.374Z,10.85
2023-05-22T01:42:12.511Z,10.85
2023-05-22T01:44:43.242Z,10.85
2023-05-22T01:47:13.178Z,10.86
2023-05-22T01:49:43.382Z,10.89
2023-05-22T01:52:20.606Z,10.91
2023-05-22T01:54:53.917Z,10.92
2023-05-22T01:57:27.135Z,10.94
2023-05-22T01:59:59.836Z,10.93
2023-05-22T02:02:30.360Z,10.92
2023-05-22T02:05:01.207Z,10.90
2023-05-22T02:07:31.509Z,10.89
2023-05-22T02:10:02.876Z,10.87
2023-05-22T02:12:33.259Z,10.86
2023-05-22T02:15:05.455Z,10.85
2023-05-22T02:17:42.586Z,10.86
2023-05-22T02:20:15.504Z,10.87
2023-05-22T02:22:48.871Z,10.89
2023-05-22T02:25:18.808Z,10.86
2023-05-22T02:27:49.878Z,10.79
2023-05-22T02:30:20.328Z,10.72
2023-05-22T02:32:52.317Z,10.66
2023-05-22T02:35:22.298Z,10.62
2023-05-22T02:37:52.508Z,10.57
2023-05-22T02:40:22.766Z,10.53
2023-05-22T02:42:53.380Z,10.49
2023-05-22T02:45:23.610Z,10.46
2023-05-22T02:47:54.099Z,10.45
2023-05-22T02:50:24.961Z,10.44
2023-05-22T02:52:54.835Z,10.45
2023-05-22T02:55:25.295Z,10.41
2023-05-22T02:57:55.457Z,10.37
2023-05-22T03:00:25.782Z,10.33
2023-05-22T03:02:56.098Z,10.28
2023-05-22T03:05:26.489Z,10.24
2023-05-22T03:07:56.390Z,10.19
2023-05-22T03:10:26.649Z,10.61
2023-05-22T03:12:56.784Z,13.28
2023-05-22T03:15:27.156Z,13.86
2023-05-22T03:18:00.304Z,13.31
2023-05-22T03:20:31.167Z,12.81
2023-05-22T03:23:01.431Z,12.45
2023-05-22T03:25:31.627Z,12.20
2023-05-22T03:28:01.655Z,12.01
2023-05-22T03:30:33.339Z,11.89
2023-05-22T03:33:17.163Z,11.80
2023-05-22T03:35:47.575Z,11.74
2023-05-22T03:38:17.502Z,11.70
2023-05-22T03:40:47.883Z,11.68
2023-05-22T03:43:17.943Z,11.68
2023-05-22T03:45:48.133Z,11.70
2023-05-22T03:48:18.075Z,11.72
2023-05-22T03:50:48.353Z,11.74
2023-05-22T03:53:18.374Z,11.79
2023-05-22T03:55:48.428Z,11.85
2023-05-22T03:58:18.307Z,11.92
2023-05-22T04:00:49.005Z,12.43
2023-05-22T04:03:19.781Z,15.10
2023-05-22T04:05:50.036Z,15.66
2023-05-22T04:08:19.896Z,15.16
2023-05-22T04:10:50.872Z,14.70
2023-05-22T04:13:21.075Z,14.38
2023-05-22T04:15:52.741Z,14.18
2023-05-22T04:18:23.165Z,14.03
2023-05-22T04:20:53.243Z,13.96
2023-05-22T04:23:23.550Z,13.90
2023-05-22T04:25:53.407Z,13.88
2023-05-22T04:28:23.602Z,13.87
2023-05-22T04:30:54.631Z,13.88
2023-05-22T04:33:24.758Z,13.90
2023-05-22T04:35:54.838Z,13.93
2023-05-22T04:38:26.555Z,13.97
2023-05-22T04:40:56.686Z,14.02
2023-05-22T04:43:26.897Z,14.07
2023-05-22T04:45:58.183Z,14.13
2023-05-22T04:48:28.323Z,14.20
2023-05-22T04:50:58.564Z,14.27
2023-05-22T04:53:30.335Z,14.35
2023-05-22T04:56:00.205Z,14.43
2023-05-22T04:58:31.161Z,14.51
2023-05-22T05:01:01.636Z,14.59
2023-05-22T05:03:31.916Z,14.68
2023-05-22T05:06:01.855Z,14.77
2023-05-22T05:08:33.067Z,14.85
2023-05-22T05:11:03.004Z,14.93
2023-05-22T05:13:33.339Z,15.02
2023-05-22T05:16:03.852Z,15.11
2023-05-22T05:18:34.100Z,15.20
2023-05-22T05:21:04.131Z,15.29
2023-05-22T05:23:34.397Z,15.37
2023-05-22T05:26:04.444Z,15.45
2023-05-22T05:28:35.098Z,15.52
2023-05-22T05:31:05.751Z,15.60
2023-05-22T05:33:58.104Z,15.70
2023-05-22T05:36:52.499Z,15.79
2023-05-22T05:39:23.814Z,15.88
2023-05-22T05:41:54.716Z,15.98
2023-05-22T05:44:24.900Z,16.07
2023-05-22T05:46:55.612Z,16.16
2023-05-22T05:49:25.886Z,16.26
2023-05-22T05:51:56.623Z,16.36
2023-05-22T05:54:27.211Z,16.45
2023-05-22T05:56:59.624Z,16.54
2023-05-22T05:59:31.937Z,16.62
2023-05-22T06:02:20.735Z,16.72
2023-05-22T06:10:37.658Z,16.75
2023-05-22T06:13:17.512Z,16.90
2023-05-22T06:15:48.472Z,16.98
2023-05-22T06:18:18.598Z,17.07
2023-05-22T06:20:48.865Z,17.17
2023-05-22T06:23:18.815Z,17.26
2023-05-22T06:25:49.383Z,17.37
2023-05-22T06:28:20.451Z,17.48
2023-05-22T06:30:51.151Z,17.58
2023-05-22T06:33:22.394Z,17.71
2023-05-22T06:35:52.643Z,17.81
2023-05-22T06:38:23.067Z,17.92
2023-05-22T06:40:52.981Z,18.02
2023-05-22T06:43:25.935Z,18.11
2023-05-22T06:46:05.514Z,18.22
2023-05-22T06:48:56.121Z,18.32
2023-05-22T06:51:28.067Z,18.40
2023-05-22T06:54:07.710Z,18.51
2023-05-22T06:56:39.235Z,18.61
2023-05-22T06:59:12.118Z,18.71
2023-05-22T07:02:00.587Z,18.81
2023-05-22T07:05:07.441Z,18.84
2023-05-22T07:07:46.476Z,18.88
2023-05-22T07:10:16.563Z,18.93
2023-05-22T07:12:46.894Z,18.96
2023-05-22T07:15:17.348Z,19.00
2023-05-22T07:17:51.304Z,19.06
2023-05-22T07:20:22.392Z,19.12
2023-05-22T07:23:02.818Z,19.20
2023-05-22T07:25:33.351Z,19.31
2023-05-22T07:28:08.705Z,19.41
2023-05-22T07:30:41.686Z,19.53
2023-05-22T07:33:12.711Z,19.64
2023-05-22T07:35:43.333Z,19.73
2023-05-22T07:38:13.241Z,19.84
2023-05-22T07:40:45.865Z,19.96
2023-05-22T07:43:15.936Z,20.05
2023-05-22T07:45:46.149Z,20.14
2023-05-22T07:48:17.148Z,20.23
2023-05-22T07:50:47.997Z,20.34
2023-05-22T07:53:19.519Z,20.43
2023-05-22T07:55:52.074Z,20.52
2023-05-22T07:58:24.151Z,20.62
2023-05-22T08:00:55.871Z,20.71
2023-05-22T08:03:26.000Z,20.79
2023-05-22T08:05:55.979Z,20.87
2023-05-22T08:08:26.404Z,20.95
2023-05-22T08:11:04.026Z,21.05
2023-05-22T08:13:34.679Z,21.15
2023-05-22T08:16:04.769Z,21.22
2023-05-22T08:18:34.676Z,21.30
2023-05-22T08:21:04.738Z,21.40
2023-05-22T08:23:36.674Z,21.48
2023-05-22T08:26:10.304Z,21.58
2023-05-22T08:28:44.121Z,21.67
2023-05-22T08:31:14.399Z,21.75
2023-05-22T08:33:44.332Z,21.82
2023-05-22T08:36:14.291Z,21.89
2023-05-22T08:38:44.676Z,21.96
2023-05-22T08:41:15.639Z,22.01
2023-05-22T08:43:45.924Z,22.08
2023-05-22T08:46:16.244Z,22.15
2023-05-22T08:48:47.300Z,22.21
2023-05-22T08:51:18.669Z,22.28
2023-05-22T08:53:48.582Z,22.35
2023-05-22T08:56:18.778Z,22.43
2023-05-22T08:58:48.796Z,22.50
2023-05-22T09:01:18.852Z,22.55
2023-05-22T09:03:51.334Z,22.60
2023-05-22T09:06:21.930Z,22.67
2023-05-22T09:08:53.512Z,22.74
2023-05-22T09:11:23.668Z,22.80
2023-05-22T09:13:53.913Z,22.85
2023-05-22T09:16:23.908Z,22.89
2023-05-22T09:18:54.221Z,22.93
2023-05-22T09:21:30.626Z,22.96
2023-05-22T09:24:02.694Z,23.00
2023-05-22T09:26:33.713Z,23.00
2023-05-22T09:29:03.745Z,23.00
2023-05-22T09:31:34.236Z,23.01
2023-05-22T09:34:04.174Z,23.04
2023-05-22T09:36:35.692Z,23.08
2023-05-22T09:39:05.727Z,23.09
2023-05-22T09:41:37.372Z,23.09
2023-05-22T09:44:14.001Z,23.09
2023-05-22T09:46:48.034Z,23.10
2023-05-22T09:49:20.162Z,23.14
2023-05-22T09:51:50.223Z,23.19
2023-05-22T09:54:21.768Z,23.24
2023-05-22T09:56:51.870Z,23.29
2023-05-22T09:59:23.694Z,23.33
2023-05-22T10:01:55.105Z,23.38
2023-05-22T10:04:25.154Z,23.43
2023-05-22T10:06:55.887Z,23.48
2023-05-22T10:09:31.051Z,23.52
2023-05-22T10:12:04.370Z,23.58
2023-05-22T10:14:34.703Z,23.66
2023-05-22T10:17:06.719Z,23.72
2023-05-22T10:19:39.452Z,23.75
2023-05-22T10:22:14.959Z,23.78
2023-05-22T10:24:46.259Z,23.84
2023-05-22T10:27:17.247Z,23.91
2023-05-22T10:29:49.622Z,23.98
2023-05-22T10:32:25.483Z,24.04
2023-05-22T10:35:02.437Z,24.09
2023-05-22T10:37:46.169Z,24.15
2023-05-22T10:40:18.337Z,24.24
2023-05-22T10:42:48.284Z,24.31
2023-05-22T10:45:18.337Z,24.38
2023-05-22T10:47:48.234Z,24.45
2023-05-22T10:50:19.008Z,24.53
2023-05-22T10:52:49.097Z,24.60
2023-05-22T10:55:19.923Z,24.67
2023-05-22T10:57:49.882Z,24.75
2023-05-22T11:00:21.300Z,24.85
2023-05-22T11:03:03.377Z,24.93
2023-05-22T11:05:41.096Z,24.99
2023-05-22T11:08:46.695Z,25.00
2023-05-22T11:11:16.834Z,25.00
2023-05-22T11:13:46.798Z,24.98
2023-05-22T11:16:16.809Z,25.02
2023-05-22T11:18:47.289Z,25.10
2023-05-22T11:21:17.275Z,25.17
2023-05-22T11:23:47.174Z,25.19
2023-05-22T11:26:22.360Z,25.15
2023-05-22T11:28:53.420Z,25.11
2023-05-22T11:31:23.515Z,25.10
2023-05-22T11:33:53.523Z,25.09
2023-05-22T11:36:23.820Z,25.11
2023-05-22T11:38:56.905Z,25.15
2023-05-22T11:41:26.835Z,25.18
2023-05-22T11:43:56.750Z,25.21
2023-05-22T11:46:26.930Z,25.24
2023-05-22T11:48:57.959Z,25.28
2023-05-22T11:51:29.051Z,25.36
2023-05-22T11:53:58.976Z,25.42
2023-05-22T11:56:28.807Z,25.47
2023-05-22T11:58:59.001Z,25.48
2023-05-22T12:01:28.976Z,25.50
2023-05-22T12:03:58.925Z,25.55
2023-05-22T12:06:33.189Z,25.61
2023-05-22T12:09:03.295Z,25.68
2023-05-22T12:11:37.083Z,25.77
2023-05-22T12:14:07.570Z,25.80
2023-05-22T12:16:37.882Z,25.80
2023-05-22T12:19:08.093Z,25.78
2023-05-22T12:21:39.471Z,25.73
2023-05-22T12:24:09.857Z,25.69
2023-05-22T12:26:40.438Z,25.66
2023-05-22T12:29:13.485Z,25.64
2023-05-22T12:31:43.796Z,25.62
2023-05-22T12:34:15.207Z,25.65
2023-05-22T12:36:45.513Z,25.69
2023-05-22T12:39:18.995Z,25.72
2023-05-22T12:41:48.951Z,25.77
2023-05-22T12:44:18.979Z,25.80
2023-05-22T12:46:48.900Z,25.77
2023-05-22T12:49:19.010Z,25.71
2023-05-22T12:51:49.029Z,25.64
2023-05-22T12:54:19.157Z,25.62
2023-05-22T12:56:49.083Z,25.62
2023-05-22T12:59:20.733Z,25.62
2023-05-22T13:01:51.084Z,25.66
2023-05-22T13:04:21.682Z,25.70
2023-05-22T13:06:51.623Z,25.75
2023-05-22T13:09:21.778Z,25.81
2023-05-22T13:11:52.056Z,25.88
2023-05-22T13:14:22.832Z,25.92
2023-05-22T13:16:52.741Z,25.95
2023-05-22T13:19:22.769Z,25.97
2023-05-22T13:21:52.714Z,25.99
2023-05-22T13:24:22.691Z,26.02
2023-05-22T13:26:52.824Z,26.05
2023-05-22T13:29:22.722Z,26.08
2023-05-22T13:31:52.694Z,26.11
2023-05-22T13:34:23.133Z,26.18
2023-05-22T13:36:53.331Z,26.23
2023-05-22T13:39:23.209Z,26.28
2023-05-22T13:41:54.370Z,26.34
2023-05-22T13:44:25.781Z,26.38
2023-05-22T13:46:55.890Z,26.43
2023-05-22T13:49:27.965Z,26.49
2023-05-22T13:51:57.935Z,26.52
2023-05-22T13:54:27.861Z,26.50
2023-05-22T13:56:59.877Z,26.49
2023-05-22T13:59:29.961Z,26.50
2023-05-22T14:01:59.971Z,26.53
2023-05-22T14:04:30.096Z,26.58
2023-05-22T14:06:59.975Z,26.64
2023-05-22T14:09:29.872Z,26.68
2023-05-22T14:12:00.073Z,26.70
2023-05-22T14:14:30.132Z,26.66
2023-05-22T14:17:00.114Z,26.61
2023-05-22T14:19:30.254Z,26.53
2023-05-22T14:22:00.233Z,26.42
2023-05-22T14:24:30.243Z,26.33
2023-05-22T14:27:00.499Z,26.26
2023-05-22T14:29:31.085Z,26.22
2023-05-22T14:32:04.538Z,26.19
2023-05-22T14:34:34.613Z,26.14
2023-05-22T14:37:04.716Z,26.10
2023-05-22T14:39:34.632Z,26.05
2023-05-22T14:42:04.924Z,26.03
2023-05-22T14:44:34.860Z,26.03
2023-05-22T14:47:06.335Z,26.05
2023-05-22T14:49:37.000Z,26.05
2023-05-22T14:52:07.046Z,26.07
2023-05-22T14:54:37.395Z,26.10
2023-05-22T14:57:07.596Z,26.11
2023-05-22T14:59:38.128Z,26.15
2023-05-22T15:02:08.304Z,26.18
2023-05-22T15:04:38.538Z,26.21
2023-05-22T15:07:08.740Z,26.22
2023-05-22T15:09:38.745Z,26.17
2023-05-22T15:12:09.118Z,26.10
2023-05-22T15:14:39.461Z,26.01
2023-05-22T15:17:09.588Z,25.92
2023-05-22T15:19:39.727Z,25.84
2023-05-22T15:22:19.203Z,25.72
2023-05-22T15:24:52.142Z,25.62
2023-05-22T15:27:22.190Z,25.59
2023-05-22T15:29:52.889Z,25.60
2023-05-22T15:32:23.633Z,25.61
2023-05-22T15:34:53.504Z,25.64
2023-05-22T15:37:23.887Z,25.69
2023-05-22T15:39:54.228Z,25.74
2023-05-22T15:42:24.669Z,25.81
2023-05-22T15:44:54.852Z,25.98
2023-05-22T15:47:26.092Z,26.30
2023-05-22T15:49:56.111Z,26.86
2023-05-22T15:52:26.279Z,27.52
2023-05-22T15:54:58.930Z,28.18
2023-05-22T15:57:29.519Z,28.76
2023-05-22T15:59:59.692Z,29.13
2023-05-22T16:02:29.643Z,29.28
2023-05-22T16:04:59.707Z,29.48
2023-05-22T16:07:29.646Z,29.65
2023-05-22T16:09:59.549Z,29.57
2023-05-22T16:12:29.539Z,29.35
2023-05-22T16:15:01.070Z,29.07
2023-05-22T16:17:32.235Z,28.74
2023-05-22T16:20:02.242Z,28.40
2023-05-22T16:22:44.261Z,28.09
2023-05-22T16:25:18.648Z,27.74
2023-05-22T16:27:48.768Z,27.47
2023-05-22T16:30:18.912Z,27.22
2023-05-22T16:32:49.061Z,26.96
2023-05-22T16:35:19.755Z,26.70
2023-05-22T16:37:50.220Z,26.46
2023-05-22T16:40:22.732Z,26.24
2023-05-22T16:42:52.679Z,26.03
2023-05-22T16:45:23.482Z,25.82
2023-05-22T16:47:55.810Z,25.64
2023-05-22T16:50:26.455Z,25.45
2023-05-22T16:52:56.865Z,25.27
2023-05-22T16:55:27.322Z,25.10
2023-05-22T16:57:57.358Z,24.95
2023-05-22T17:00:27.337Z,24.79
2023-05-22T17:02:57.402Z,24.62
2023-05-22T17:05:27.712Z,24.47
2023-05-22T17:07:57.708Z,24.31
2023-05-22T17:10:27.688Z,24.17
2023-05-22T17:12:58.008Z,24.04
2023-05-22T17:15:28.053Z,23.92
2023-05-22T17:17:58.310Z,23.78
2023-05-22T17:20:29.489Z,23.66
2023-05-22T17:22:59.574Z,23.53
2023-05-22T17:25:29.629Z,23.40
2023-05-22T17:27:59.671Z,23.26
2023-05-22T17:30:29.899Z,23.14
2023-05-22T17:32:59.952Z,23.03
2023-05-22T17:35:30.187Z,22.93
2023-05-22T17:38:00.195Z,22.80
2023-05-22T17:40:43.207Z,22.68
2023-05-22T17:43:16.618Z,22.56
2023-05-22T17:45:50.117Z,22.44
2023-05-22T17:48:27.194Z,22.32
2023-05-22T17:50:57.412Z,22.20
2023-05-22T17:53:32.077Z,22.09
2023-05-22T17:56:02.120Z,21.99
2023-05-22T17:58:32.832Z,21.89
2023-05-22T18:01:02.846Z,21.78
2023-05-22T18:03:34.028Z,21.69
2023-05-22T18:06:04.593Z,21.57
2023-05-22T18:08:35.015Z,21.47
2023-05-22T18:11:05.426Z,21.37
2023-05-22T18:13:35.404Z,21.27
2023-05-22T18:16:05.613Z,21.17
2023-05-22T18:18:35.712Z,21.06
2023-05-22T18:21:06.101Z,20.96
2023-05-22T18:23:36.682Z,20.86
2023-05-22T18:26:06.923Z,20.77
2023-05-22T18:28:36.865Z,20.68
2023-05-22T18:31:08.151Z,20.60
2023-05-22T18:33:39.256Z,20.51
2023-05-22T18:36:09.345Z,20.41
2023-05-22T18:38:39.451Z,20.32
2023-05-22T18:41:09.529Z,20.22
2023-05-22T18:43:39.767Z,20.11
2023-05-22T18:46:09.724Z,20.02
2023-05-22T18:48:39.816Z,19.94
2023-05-22T18:51:09.719Z,19.85
2023-05-22T18:53:39.758Z,19.77
2023-05-22T18:56:09.738Z,19.69
2023-05-22T18:58:41.510Z,19.61
2023-05-22T19:01:11.652Z,19.54
2023-05-22T19:14:18.483Z,18.88
2023-05-22T19:16:49.354Z,18.79
2023-05-22T19:19:19.920Z,18.74
2023-05-22T19:21:50.291Z,18.72
2023-05-22T19:24:21.061Z,18.69
2023-05-22T19:26:51.022Z,18.68
2023-05-22T19:29:21.214Z,18.66
2023-05-22T19:31:51.272Z,18.64
2023-05-22T19:34:21.533Z,18.62
2023-05-22T19:36:52.274Z,18.59
2023-05-22T19:39:22.568Z,18.56
2023-05-22T19:41:52.928Z,18.54
2023-05-22T19:44:25.519Z,18.50
2023-05-22T19:46:56.688Z,18.45
2023-05-22T19:49:31.671Z,18.39
2023-05-22T19:52:01.821Z,18.33
2023-05-22T19:54:32.318Z,18.28
2023-05-22T19:57:02.286Z,18.23
2023-05-22T19:59:36.686Z,18.18
2023-05-22T20:02:07.166Z,18.13
2023-05-22T20:04:38.335Z,18.09
2023-05-22T20:07:08.505Z,18.04
2023-05-22T20:09:39.069Z,17.99
2023-05-22T20:12:10.536Z,17.94
2023-05-22T20:14:40.654Z,17.89
2023-05-22T20:17:10.751Z,17.85
2023-05-22T20:19:45.258Z,17.81
2023-05-22T20:22:15.147Z,17.78
2023-05-22T20:24:45.139Z,17.74
2023-05-22T20:27:15.127Z,17.69
2023-05-22T20:31:22.701Z,17.62
2023-05-22T20:33:52.816Z,17.53
2023-05-22T20:36:22.981Z,17.48
2023-05-22T20:38:54.337Z,17.44
2023-05-22T20:41:24.454Z,17.41
2023-05-22T20:43:54.767Z,17.39
2023-05-22T20:46:25.180Z,17.36
2023-05-22T20:48:56.471Z,17.35
2023-05-22T20:51:32.821Z,17.31
2023-05-22T20:54:03.007Z,17.29
2023-05-22T20:56:33.083Z,17.27
2023-05-22T20:59:03.513Z,17.25
2023-05-22T21:01:33.536Z,17.24
2023-05-22T21:04:03.881Z,17.24
2023-05-22T21:06:34.131Z,17.23
2023-05-22T21:09:04.402Z,17.22
2023-05-22T21:11:34.734Z,17.22
2023-05-22T21:14:04.821Z,17.21
2023-05-22T21:16:37.615Z,17.20
2023-05-22T21:19:09.792Z,17.19
2023-05-22T21:21:41.862Z,17.18
2023-05-22T21:24:12.509Z,17.17
2023-05-22T21:26:42.685Z,17.17
2023-05-22T21:29:12.846Z,17.15
2023-05-22T21:31:42.864Z,17.08
2023-05-22T21:34:13.150Z,17.00
2023-05-22T21:36:43.136Z,16.92
2023-05-22T21:39:13.998Z,16.85
2023-05-22T21:41:43.914Z,16.76
2023-05-22T21:44:13.996Z,16.72
2023-05-22T21:46:43.984Z,16.70
2023-05-22T21:49:14.177Z,16.69
2023-05-22T21:51:44.620Z,16.69
2023-05-22T21:54:14.558Z,16.68
2023-05-22T21:56:44.648Z,16.67
2023-05-22T21:59:14.875Z,16.66
2023-05-22T22:01:45.814Z,16.63
2023-05-22T22:04:16.146Z,16.61
2023-05-22T22:06:46.887Z,16.59
2023-05-22T22:09:17.096Z,16.57
2023-05-22T22:11:48.683Z,16.56
2023-05-22T22:14:19.162Z,16.54
2023-05-22T22:16:50.722Z,16.53
2023-05-22T22:19:21.047Z,16.52
2023-05-22T22:21:51.307Z,16.51
2023-05-22T22:24:23.304Z,16.51
2023-05-22T22:26:53.431Z,16.49
2023-05-22T22:29:23.357Z,16.47
2023-05-22T22:31:53.322Z,16.46
2023-05-22T22:34:23.441Z,16.45
2023-05-22T22:36:54.247Z,16.43
2023-05-22T22:39:26.525Z,16.41
2023-05-22T22:42:01.448Z,16.40
2023-05-22T22:44:32.335Z,16.39
2023-05-22T22:47:04.730Z,16.38
2023-05-22T22:49:35.158Z,16.37
2023-05-22T22:52:05.449Z,16.37
2023-05-22T22:54:36.140Z,16.35
2023-05-22T22:57:06.495Z,16.31
2023-05-22T22:59:38.608Z,16.26
2023-05-22T23:02:08.851Z,16.20
2023-05-22T23:04:41.260Z,16.14
2023-05-22T23:07:11.662Z,16.09
2023-05-22T23:09:41.771Z,16.05
2023-05-22T23:12:12.135Z,15.98
2023-05-22T23:14:42.350Z,15.93
2023-05-22T23:17:15.786Z,15.86
2023-05-22T23:19:46.179Z,15.78
2023-05-22T23:22:16.422Z,15.71
2023-05-22T23:24:46.371Z,15.62
2023-05-22T23:27:16.459Z,15.52
2023-05-22T23:29:46.589Z,15.42
2023-05-22T23:32:16.565Z,15.32
2023-05-22T23:34:47.014Z,15.26
2023-05-22T23:37:17.138Z,15.21
2023-05-22T23:39:47.361Z,15.17
2023-05-22T23:42:17.839Z,15.13
2023-05-22T23:44:48.049Z,15.08
2023-05-22T23:47:18.841Z,15.04
2023-05-22T23:49:49.079Z,14.99
2023-05-22T23:52:19.187Z,14.96
2023-05-22T23:54:49.363Z,14.92
2023-05-22T23:57:19.743Z,14.89
2023-05-22T23:59:49.875Z,14.84
